• Join FlightAware (Why Join?)
  • Login
  • US Flag 
05:45AM EDT


 

Airport Tracker/Info


-or-


 

Live Flight TrackerFlight Track Log ✈ CPZ5718 ✈ 24-Jun-2013 ✈ KALB - KMSP

Flight Track Log - Related Links

Times and Time Zones

All times are in EDT time to prevent confusion due to time zone crossing. See the CPZ5718 flight status page for this flight to view local times or setup timezone preferences in your user account.

Time Position Orientation Groundspeed Altitude Reporting Facility
EDT Latitude Longitude Course Direction KTS MPH feet Rate Location/Type
06:49AM 42.7236 -73.8050 281° West 150 173 1,200  Level Boston Center
06:50AM 42.7250 -73.8672 272° West 192 221 3,200 1,620 Climbing Boston Center
06:52AM 42.8414 -74.3814 283° West  Level FlightAware Approximate
06:52AM 42.7825 -73.9367 318° Northwest 228 262 5,800  Level Boston Center
06:53AM 42.8660 -74.5294 283° West  Level FlightAware Approximate
06:53AM 42.8356 -74.0031 317° Northwest 241 277 8,600  Level Boston Center
06:54AM 42.8995 -74.6675 281° West  Level FlightAware Approximate
06:54AM 42.8972 -74.0811 317° Northwest 257 296 11,200  Level Boston Center
06:55AM 42.9625 -74.1650 317° Northwest 291 335 12,900 1,980 Climbing Boston Center
06:56AM 43.0281 -74.2492 317° Northwest 325 374 15,200 1,860 Climbing Boston Center
06:57AM 43.0633 -74.3725 291° West 331 381 16,700 1,620 Climbing Boston Center
06:58AM 43.0714 -74.5122 275° West 361 415 18,500 1,740 Climbing Boston Center
06:59AM 43.0772 -74.6517 273° West 371 427 20,200 1,560 Climbing Boston Center
07:00AM 43.0867 -74.7969 275° West 382 440 21,700 1,260 Climbing Boston Center
07:01AM 43.0925 -74.9194 274° West 388 447 22,800 1,260 Climbing Boston Center
07:02AM 43.1011 -75.0847 274° West 394 453 24,200 1,260 Climbing Boston Center
07:03AM 43.1100 -75.2417 274° West 405 466 25,400 1,140 Climbing Boston Center
07:04AM 43.1206 -75.4014 275° West 416 479 26,600 1,020 Climbing Boston Center
07:05AM 43.1286 -75.5639 274° West 427 491 27,500 900 Climbing Boston Center
07:06AM 43.1389 -75.7267 275° West 432 497 28,400 780 Climbing Boston Center
07:07AM 43.1464 -75.8950 274° West 432 497 29,100 900 Climbing Boston Center
07:08AM 43.1536 -76.0636 273° West 443 510 30,300 1,020 Climbing Boston Center
07:09AM 43.1514 -76.3397 269° West 447 514 31,900 900 Climbing Cleveland Center
07:10AM 43.1364 -76.5003 263° West 442 509 32,700 720 Climbing Cleveland Center
07:11AM 43.1192 -76.6636 262° West 442 509 33,400 600 Climbing Cleveland Center
07:12AM 43.1058 -76.8264 264° West 442 509 34,000 600 Climbing Cleveland Center
07:13AM 43.1194 -76.9908 277° West 442 509 34,700 660 Climbing Cleveland Center
07:14AM 43.1622 -77.1675 288° West 440 506 35,400 600 Climbing Cleveland Center
07:15AM 43.1981 -77.3281 287° West 445 512 36,000 300 Climbing Cleveland Center
07:16AM 43.2339 -77.4886 287° West 445 512 36,000  Level Cleveland Center
07:17AM 43.2694 -77.6550 286° West 451 519 36,000  Level Cleveland Center
07:18AM 43.3044 -77.8161 287° West 451 519 36,000  Level Cleveland Center
07:19AM 43.3417 -77.9828 287° West 451 519 36,000  Level Cleveland Center
07:20AM 43.3744 -78.1442 286° West 451 519 36,000  Level Cleveland Center
07:21AM 43.4092 -78.3086 286° West 451 519 36,000  Level Cleveland Center
07:22AM 43.4433 -78.4731 286° West 451 519 36,000  Level Cleveland Center
07:23AM 43.4797 -78.6408 287° West 451 519 36,000  Level Cleveland Center
07:24AM 43.5167 -78.8000 288° West 450 518 36,000  Level Toronto Center
07:25AM 43.5500 -78.9833 284° West 450 518 36,000  Level Toronto Center
07:26AM 43.5833 -79.1500 285° West 450 518 36,000  Level Toronto Center
07:27AM 43.6167 -79.3167 285° West 440 506 36,000  Level Toronto Center
07:28AM 43.6333 -79.4667 279° West 430 495 36,000  Level Toronto Center
07:29AM 43.6667 -79.6500 284° West 440 506 36,000  Level Toronto Center
07:30AM 43.7000 -79.8000 287° West 450 518 36,000  Level Toronto Center
07:31AM 43.7333 -79.9500 287° West 430 495 36,000  Level Toronto Center
07:32AM 43.7667 -80.1167 286° West 430 495 36,000  Level Toronto Center
07:33AM 43.8000 -80.2833 286° West 430 495 36,000  Level Toronto Center
07:34AM 43.8333 -80.4500 286° West 430 495 36,000  Level Toronto Center
07:35AM 43.8667 -80.6000 287° West 430 495 36,000  Level Toronto Center
07:36AM 43.9000 -80.7667 286° West 430 495 36,000  Level Toronto Center
07:37AM 43.9167 -80.9333 278° West 440 506 36,000  Level Toronto Center
07:38AM 43.9333 -81.0833 279° West 430 495 36,000  Level Toronto Center
07:39AM 43.9667 -81.2500 286° West 430 495 36,000  Level Toronto Center
07:40AM 44.0000 -81.4167 286° West 430 495 36,000  Level Toronto Center
07:41AM 44.0333 -81.5833 286° West 430 495 36,000  Level Toronto Center
07:42AM 44.0667 -81.7500 286° West 430 495 36,000  Level Toronto Center
07:43AM 44.1000 -81.9000 287° West 430 495 36,000  Level Toronto Center
07:44AM 44.1167 -82.0667 278° West 430 495 36,000  Level Toronto Center
07:45AM 44.1333 -82.2167 279° West 420 483 36,000  Level Toronto Center
07:46AM 44.1667 -82.3833 286° West 420 483 36,000  Level Toronto Center
07:47AM 44.2000 -82.5333 287° West 420 483 36,000  Level Toronto Center
07:48AM 44.2167 -82.7000 278° West 420 483 36,000  Level Toronto Center
07:49AM 44.2500 -82.8667 286° West 430 495 36,000  Level Toronto Center
07:50AM 44.2833 -83.0333 286° West 420 483 36,000  Level Toronto Center
07:51AM 44.3025 -83.1333 285° West 419 482 36,000  Level Minneapolis Center
07:52AM 44.3281 -83.2922 283° West 419 482 36,000  Level Minneapolis Center
07:53AM 44.3486 -83.4194 283° West 420 483 36,000  Level Minneapolis Center
07:54AM 44.3775 -83.6069 282° West 415 478 36,000  Level Minneapolis Center
07:55AM 44.4086 -83.7958 283° West 416 479 36,000  Level Minneapolis Center
07:56AM 44.4325 -83.9536 282° West 417 480 36,000  Level Minneapolis Center
07:57AM 44.4569 -84.1100 282° West 415 478 36,000  Level Minneapolis Center
07:58AM 44.4817 -84.2667 283° West 414 476 36,000  Level Minneapolis Center
07:59AM 44.5044 -84.4217 282° West 409 471 36,000  Level Minneapolis Center
08:01AM 44.5272 -84.5775 282° West 411 473 36,000  Level Minneapolis Center
08:02AM 44.5544 -84.7622 282° West 405 466 36,000  Level Minneapolis Center
08:03AM 44.5775 -84.9172 282° West 407 468 36,000  Level Minneapolis Center
08:04AM 44.5994 -85.0736 281° West 410 472 36,000  Level Minneapolis Center
08:05AM 44.6153 -85.2619 277° West 407 468 36,000  Level Minneapolis Center
08:06AM 44.6258 -85.4172 276° West 403 464 36,000  Level Minneapolis Center
08:07AM 44.6375 -85.5725 276° West 400 460 36,000  Level Minneapolis Center
08:08AM 44.6464 -85.7108 275° West 397 457 36,000  Level Minneapolis Center
08:09AM 44.6578 -85.8672 276° West 402 463 36,000  Level Minneapolis Center
08:10AM 44.6678 -86.0194 275° West 397 457 36,000  Level Minneapolis Center
08:11AM 44.6800 -86.1986 276° West 390 449 36,000  Level Minneapolis Center
08:12AM 44.6911 -86.3506 276° West 391 450 36,000  Level Minneapolis Center
08:13AM 44.7000 -86.5044 275° West 396 456 36,000  Level Minneapolis Center
08:14AM 44.7089 -86.6569 275° West 389 448 36,000  Level Minneapolis Center
08:15AM 44.7183 -86.8350 274° West 390 449 36,000  Level Minneapolis Center
08:16AM 44.7269 -86.9858 275° West 388 447 36,000  Level Minneapolis Center
08:17AM 44.7353 -87.1353 275° West 386 444 36,000  Level Minneapolis Center
08:18AM 44.7458 -87.3178 275° West 389 448 36,000  Level Minneapolis Center
08:19AM 44.7544 -87.4717 275° West 393 452 36,000  Level Minneapolis Center
08:21AM 44.7642 -87.6561 274° West 395 455 36,000  Level Minneapolis Center
08:22AM 44.7717 -87.8097 274° West 396 456 36,000  Level Minneapolis Center
08:23AM 44.7797 -87.9622 274° West 392 451 36,000 -60 Level Minneapolis Center
08:24AM 44.7872 -88.1147 274° West 393 452 35,900  Descending Minneapolis Center
08:25AM 44.7947 -88.2825 274° West 391 450 36,000  Climbing Minneapolis Center
08:26AM 44.8028 -88.4594 274° West 389 448 36,000  Level Minneapolis Center
08:27AM 44.8100 -88.6353 273° West 386 444 36,000  Level Minneapolis Center
08:28AM 44.8167 -88.7878 274° West 390 449 36,000  Level Minneapolis Center
08:29AM 44.8233 -88.9383 274° West 388 447 36,000 -300 Level Minneapolis Center
08:30AM 44.8297 -89.0892 273° West 386 444 35,400 -600 Descending Minneapolis Center
08:31AM 44.8353 -89.2431 273° West 392 451 34,800 -600 Descending Minneapolis Center
08:32AM 44.8408 -89.3964 273° West 392 451 34,200 -660 Descending Minneapolis Center
08:33AM 44.8472 -89.5758 273° West 394 453 33,500 -600 Descending Minneapolis Center
08:34AM 44.8522 -89.7292 273° West 393 452 32,900 -660 Descending Minneapolis Center
08:35AM 44.8581 -89.9261 272° West 401 461 32,100 -480 Descending Minneapolis Center
08:36AM 44.8636 -90.0856 273° West 406 467 32,000 -60 Descending Minneapolis Center
08:37AM 44.8678 -90.2456 272° West 407 468 32,000  Level Minneapolis Center
08:38AM 44.8725 -90.4042 272° West 407 468 32,000 -60 Level Minneapolis Center
08:39AM 44.8767 -90.5653 272° West 411 473 31,900 -480 Descending Minneapolis Center
08:41AM 44.8808 -90.7267 272° West 411 473 31,100 -900 Descending Minneapolis Center
08:42AM 44.8858 -90.9147 272° West 411 473 30,100 -960 Descending Minneapolis Center
08:43AM 44.8878 -91.0742 271° West 408 470 29,200 -900 Descending Minneapolis Center
08:44AM 44.8925 -91.2336 272° West 409 471 28,300 -1,080 Descending Minneapolis Center
08:45AM 44.8933 -91.3900 270° West 404 465 27,000 -1,980 Descending Minneapolis Center
08:46AM 44.9064 -91.5403 277° West 393 452 24,300 -2,400 Descending Minneapolis Center
08:47AM 44.9353 -91.6764 287° West 369 425 22,200 -2,100 Descending Minneapolis Center
08:48AM 44.9642 -91.8369 284° West 358 412 20,000 -2,280 Descending Minneapolis Center
08:49AM 44.9900 -91.9658 286° West 347 399 17,500 -2,580 Descending Minneapolis Center
08:50AM 45.0136 -92.0936 285° West 339 390 14,800 -2,340 Descending Minneapolis Center
08:51AM 45.0308 -92.1900 284° West 323 372 12,800 -1,860 Descending Minneapolis Center
08:52AM 45.0439 -92.3300 278° West 300 345 11,000 -900 Descending Minneapolis Center
08:53AM 45.0258 -92.4389 257° West 291 335 11,000 -660 Level Minneapolis Center
08:54AM 45.0014 -92.5367 251° West 264 304 9,700 -1,800 Descending Minneapolis Center
08:55AM 44.9444 -92.6306 229° Southwest 262 302 7,400 -1,320 Descending Minneapolis Center
08:56AM 44.8992 -92.7039 229° Southwest 246 283 7,000 -240 Descending Minneapolis Center
08:57AM 44.8606 -92.7667 229° Southwest 216 249 7,000 -360 Level Minneapolis Center
08:58AM 44.8147 -92.8244 222° Southwest 221 254 6,300 -840 Descending Minneapolis Center
08:59AM 44.8131 -92.9056 268° West 212 244 5,100 -1,080 Descending Minneapolis Center
09:00AM 44.8167 -93.0017 273° West 175 201 3,900 -1,200 Descending Minneapolis Center